sensor_id;sensor_type;location;lat;lon;timestamp;temperature;humidity
69281;SHT31;56392;51.082;17.080;2023-06-19T00:04:51;17.80;72.55
69281;SHT31;56392;51.082;17.080;2023-06-19T00:10:14;17.72;72.73
69281;SHT31;56392;51.082;17.080;2023-06-19T00:15:39;17.69;72.90
69281;SHT31;56392;51.082;17.080;2023-06-19T00:21:02;17.62;72.88
69281;SHT31;56392;51.082;17.080;2023-06-19T00:26:27;17.53;73.08
69281;SHT31;56392;51.082;17.080;2023-06-19T00:31:52;17.42;73.34
69281;SHT31;56392;51.082;17.080;2023-06-19T00:37:15;17.36;73.49
69281;SHT31;56392;51.082;17.080;2023-06-19T00:42:38;17.25;73.88
69281;SHT31;56392;51.082;17.080;2023-06-19T00:48:04;17.21;73.90
69281;SHT31;56392;51.082;17.080;2023-06-19T00:53:27;17.15;74.19
69281;SHT31;56392;51.082;17.080;2023-06-19T00:58:51;17.15;74.09
69281;SHT31;56392;51.082;17.080;2023-06-19T01:04:16;17.08;74.20
69281;SHT31;56392;51.082;17.080;2023-06-19T01:09:43;17.01;74.30
69281;SHT31;56392;51.082;17.080;2023-06-19T01:15:09;16.95;74.47
69281;SHT31;56392;51.082;17.080;2023-06-19T01:20:33;16.82;74.64
69281;SHT31;56392;51.082;17.080;2023-06-19T01:25:58;16.75;74.83
69281;SHT31;56392;51.082;17.080;2023-06-19T01:31:26;16.78;74.85
69281;SHT31;56392;51.082;17.080;2023-06-19T01:36:51;16.80;74.99
69281;SHT31;56392;51.082;17.080;2023-06-19T01:42:18;16.70;75.27
69281;SHT31;56392;51.082;17.080;2023-06-19T01:47:41;16.72;75.22
69281;SHT31;56392;51.082;17.080;2023-06-19T01:53:04;16.65;75.42
69281;SHT31;56392;51.082;17.080;2023-06-19T01:58:29;16.63;75.38
69281;SHT31;56392;51.082;17.080;2023-06-19T02:03:52;16.46;75.66
69281;SHT31;56392;51.082;17.080;2023-06-19T02:09:15;16.44;75.79
69281;SHT31;56392;51.082;17.080;2023-06-19T02:14:40;16.39;75.79
69281;SHT31;56392;51.082;17.080;2023-06-19T02:20:04;16.37;75.84
69281;SHT31;56392;51.082;17.080;2023-06-19T02:25:29;16.33;75.70
69281;SHT31;56392;51.082;17.080;2023-06-19T02:30:54;16.20;75.84
69281;SHT31;56392;51.082;17.080;2023-06-19T02:36:17;16.19;76.05
69281;SHT31;56392;51.082;17.080;2023-06-19T02:41:41;16.14;76.10
69281;SHT31;56392;51.082;17.080;2023-06-19T02:47:08;16.16;76.16
69281;SHT31;56392;51.082;17.080;2023-06-19T02:52:32;16.12;76.29
69281;SHT31;56392;51.082;17.080;2023-06-19T02:57:54;16.12;76.45
69281;SHT31;56392;51.082;17.080;2023-06-19T03:03:19;16.19;76.36
69281;SHT31;56392;51.082;17.080;2023-06-19T03:08:42;16.20;76.46
69281;SHT31;56392;51.082;17.080;2023-06-19T03:14:05;16.23;76.55
69281;SHT31;56392;51.082;17.080;2023-06-19T03:19:30;16.27;76.48
69281;SHT31;56392;51.082;17.080;2023-06-19T03:24:53;16.27;76.46
69281;SHT31;56392;51.082;17.080;2023-06-19T03:30:16;16.27;76.56
69281;SHT31;56392;51.082;17.080;2023-06-19T03:35:41;16.34;76.49
69281;SHT31;56392;51.082;17.080;2023-06-19T03:41:04;16.40;76.48
69281;SHT31;56392;51.082;17.080;2023-06-19T03:46:27;16.46;76.40
69281;SHT31;56392;51.082;17.080;2023-06-19T03:51:52;16.50;76.47
69281;SHT31;56392;51.082;17.080;2023-06-19T03:57:16;16.71;76.53
69281;SHT31;56392;51.082;17.080;2023-06-19T04:02:39;16.95;76.74
69281;SHT31;56392;51.082;17.080;2023-06-19T04:08:04;17.19;76.03
69281;SHT31;56392;51.082;17.080;2023-06-19T04:13:27;17.45;75.27
69281;SHT31;56392;51.082;17.080;2023-06-19T04:18:50;17.73;74.85
69281;SHT31;56392;51.082;17.080;2023-06-19T04:24:14;18.03;74.13
69281;SHT31;56392;51.082;17.080;2023-06-19T04:29:37;18.23;73.66
69281;SHT31;56392;51.082;17.080;2023-06-19T04:35:00;18.32;73.44
69281;SHT31;56392;51.082;17.080;2023-06-19T04:40:25;18.44;73.48
69281;SHT31;56392;51.082;17.080;2023-06-19T04:45:48;18.61;72.86
69281;SHT31;56392;51.082;17.080;2023-06-19T04:51:11;18.79;72.71
69281;SHT31;56392;51.082;17.080;2023-06-19T04:56:36;18.91;72.19
69281;SHT31;56392;51.082;17.080;2023-06-19T05:01:58;19.07;71.72
69281;SHT31;56392;51.082;17.080;2023-06-19T05:07:21;19.23;71.63
69281;SHT31;56392;51.082;17.080;2023-06-19T05:12:46;19.31;71.67
69281;SHT31;56392;51.082;17.080;2023-06-19T05:18:09;19.44;71.35
69281;SHT31;56392;51.082;17.080;2023-06-19T05:23:33;19.65;70.85
69281;SHT31;56392;51.082;17.080;2023-06-19T05:28:58;19.89;70.51
69281;SHT31;56392;51.082;17.080;2023-06-19T05:34:21;20.77;68.71
69281;SHT31;56392;51.082;17.080;2023-06-19T05:39:44;21.32;66.84
69281;SHT31;56392;51.082;17.080;2023-06-19T05:45:09;21.45;65.90
69281;SHT31;56392;51.082;17.080;2023-06-19T05:50:32;21.89;65.23
69281;SHT31;56392;51.082;17.080;2023-06-19T05:55:55;22.43;64.49
69281;SHT31;56392;51.082;17.080;2023-06-19T06:01:21;22.87;63.15
69281;SHT31;56392;51.082;17.080;2023-06-19T06:06:45;22.94;62.92
69281;SHT31;56392;51.082;17.080;2023-06-19T06:12:08;23.60;61.32
69281;SHT31;56392;51.082;17.080;2023-06-19T06:17:33;24.97;59.18
69281;SHT31;56392;51.082;17.080;2023-06-19T06:22:55;25.61;56.91
69281;SHT31;56392;51.082;17.080;2023-06-19T06:28:19;25.44;56.47
69281;SHT31;56392;51.082;17.080;2023-06-19T06:33:43;25.02;56.27
69281;SHT31;56392;51.082;17.080;2023-06-19T06:39:06;24.75;56.83
69281;SHT31;56392;51.082;17.080;2023-06-19T06:44:29;24.61;57.47
69281;SHT31;56392;51.082;17.080;2023-06-19T06:49:53;24.45;57.38
69281;SHT31;56392;51.082;17.080;2023-06-19T06:55:16;24.25;57.73
69281;SHT31;56392;51.082;17.080;2023-06-19T07:00:39;24.18;57.94
69281;SHT31;56392;51.082;17.080;2023-06-19T07:06:04;24.14;57.69
69281;SHT31;56392;51.082;17.080;2023-06-19T07:11:27;24.25;57.30
69281;SHT31;56392;51.082;17.080;2023-06-19T07:16:50;24.34;57.04
69281;SHT31;56392;51.082;17.080;2023-06-19T07:22:14;24.51;56.96
69281;SHT31;56392;51.082;17.080;2023-06-19T07:27:38;24.72;56.33
69281;SHT31;56392;51.082;17.080;2023-06-19T07:33:01;24.92;56.31
69281;SHT31;56392;51.082;17.080;2023-06-19T07:38:25;25.00;55.79
69281;SHT31;56392;51.082;17.080;2023-06-19T07:43:48;25.07;55.87
69281;SHT31;56392;51.082;17.080;2023-06-19T07:49:12;25.26;55.50
69281;SHT31;56392;51.082;17.080;2023-06-19T07:54:38;25.43;55.44
69281;SHT31;56392;51.082;17.080;2023-06-19T08:00:11;25.60;54.64
69281;SHT31;56392;51.082;17.080;2023-06-19T08:05:34;25.74;53.94
69281;SHT31;56392;51.082;17.080;2023-06-19T08:10:59;25.82;53.73
69281;SHT31;56392;51.082;17.080;2023-06-19T08:16:24;25.98;53.66
69281;SHT31;56392;51.082;17.080;2023-06-19T08:21:47;26.28;52.94
69281;SHT31;56392;51.082;17.080;2023-06-19T08:27:11;26.52;52.45
69281;SHT31;56392;51.082;17.080;2023-06-19T08:32:34;26.72;52.37
69281;SHT31;56392;51.082;17.080;2023-06-19T08:37:57;27.06;51.90
69281;SHT31;56392;51.082;17.080;2023-06-19T08:43:22;27.47;51.09
69281;SHT31;56392;51.082;17.080;2023-06-19T08:48:46;28.00;48.95
69281;SHT31;56392;51.082;17.080;2023-06-19T08:54:09;28.21;49.12
69281;SHT31;56392;51.082;17.080;2023-06-19T08:59:33;28.57;48.97
69281;SHT31;56392;51.082;17.080;2023-06-19T09:04:56;28.77;47.76
69281;SHT31;56392;51.082;17.080;2023-06-19T09:10:19;29.58;46.98
69281;SHT31;56392;51.082;17.080;2023-06-19T09:15:44;29.60;45.52
69281;SHT31;56392;51.082;17.080;2023-06-19T09:21:07;29.59;44.41
69281;SHT31;56392;51.082;17.080;2023-06-19T09:26:37;29.97;43.84
69281;SHT31;56392;51.082;17.080;2023-06-19T09:32:01;30.20;41.93
69281;SHT31;56392;51.082;17.080;2023-06-19T09:37:25;30.37;40.81
69281;SHT31;56392;51.082;17.080;2023-06-19T09:42:54;30.45;40.08
69281;SHT31;56392;51.082;17.080;2023-06-19T09:48:22;30.92;38.48
69281;SHT31;56392;51.082;17.080;2023-06-19T09:53:47;31.88;36.02
69281;SHT31;56392;51.082;17.080;2023-06-19T09:59:10;32.39;33.88
69281;SHT31;56392;51.082;17.080;2023-06-19T10:04:43;32.51;32.78
69281;SHT31;56392;51.082;17.080;2023-06-19T10:10:09;32.11;34.74
69281;SHT31;56392;51.082;17.080;2023-06-19T10:15:34;31.99;34.88
69281;SHT31;56392;51.082;17.080;2023-06-19T10:21:15;31.91;34.80
69281;SHT31;56392;51.082;17.080;2023-06-19T10:26:38;32.14;35.22
69281;SHT31;56392;51.082;17.080;2023-06-19T10:32:02;32.01;34.22
69281;SHT31;56392;51.082;17.080;2023-06-19T10:37:33;31.77;34.12
69281;SHT31;56392;51.082;17.080;2023-06-19T10:42:59;31.64;34.05
69281;SHT31;56392;51.082;17.080;2023-06-19T10:48:23;31.54;34.19
69281;SHT31;56392;51.082;17.080;2023-06-19T10:53:49;31.33;34.34
69281;SHT31;56392;51.082;17.080;2023-06-19T10:59:12;31.50;34.47
69281;SHT31;56392;51.082;17.080;2023-06-19T11:04:37;31.39;33.01
69281;SHT31;56392;51.082;17.080;2023-06-19T11:10:04;31.22;32.69
69281;SHT31;56392;51.082;17.080;2023-06-19T11:15:30;30.99;33.17
69281;SHT31;56392;51.082;17.080;2023-06-19T11:20:53;30.93;32.96
69281;SHT31;56392;51.082;17.080;2023-06-19T11:26:18;30.75;33.45
69281;SHT31;56392;51.082;17.080;2023-06-19T11:31:42;30.79;33.36
69281;SHT31;56392;51.082;17.080;2023-06-19T11:37:12;30.92;32.27
69281;SHT31;56392;51.082;17.080;2023-06-19T11:42:45;31.04;33.46
69281;SHT31;56392;51.082;17.080;2023-06-19T11:48:09;31.09;32.99
69281;SHT31;56392;51.082;17.080;2023-06-19T11:53:33;30.89;33.57
69281;SHT31;56392;51.082;17.080;2023-06-19T11:58:58;30.72;32.70
69281;SHT31;56392;51.082;17.080;2023-06-19T12:04:21;30.54;33.97
69281;SHT31;56392;51.082;17.080;2023-06-19T12:09:44;30.35;34.24
69281;SHT31;56392;51.082;17.080;2023-06-19T12:15:08;30.37;34.95
69281;SHT31;56392;51.082;17.080;2023-06-19T12:20:31;30.34;35.18
69281;SHT31;56392;51.082;17.080;2023-06-19T12:25:55;30.24;35.23
69281;SHT31;56392;51.082;17.080;2023-06-19T12:31:20;30.20;35.51
69281;SHT31;56392;51.082;17.080;2023-06-19T12:36:43;30.11;35.46
69281;SHT31;56392;51.082;17.080;2023-06-19T12:42:06;30.20;35.91
69281;SHT31;56392;51.082;17.080;2023-06-19T12:47:32;30.32;36.60
69281;SHT31;56392;51.082;17.080;2023-06-19T12:52:55;30.32;36.35
69281;SHT31;56392;51.082;17.080;2023-06-19T12:58:18;30.28;36.45
69281;SHT31;56392;51.082;17.080;2023-06-19T13:03:42;30.27;36.95
69281;SHT31;56392;51.082;17.080;2023-06-19T13:09:05;30.18;37.16
69281;SHT31;56392;51.082;17.080;2023-06-19T13:14:28;30.01;37.05
69281;SHT31;56392;51.082;17.080;2023-06-19T13:19:54;30.00;37.12
69281;SHT31;56392;51.082;17.080;2023-06-19T13:25:18;29.96;37.30
69281;SHT31;56392;51.082;17.080;2023-06-19T13:30:41;29.86;37.30
69281;SHT31;56392;51.082;17.080;2023-06-19T13:36:05;29.89;37.33
69281;SHT31;56392;51.082;17.080;2023-06-19T13:41:29;29.89;37.84
69281;SHT31;56392;51.082;17.080;2023-06-19T13:46:54;29.80;37.72
69281;SHT31;56392;51.082;17.080;2023-06-19T13:52:18;29.70;37.76
69281;SHT31;56392;51.082;17.080;2023-06-19T13:57:42;29.63;38.34
69281;SHT31;56392;51.082;17.080;2023-06-19T14:03:05;29.66;38.26
69281;SHT31;56392;51.082;17.080;2023-06-19T14:08:30;29.63;37.94
69281;SHT31;56392;51.082;17.080;2023-06-19T14:13:53;29.45;37.99
69281;SHT31;56392;51.082;17.080;2023-06-19T14:19:16;29.32;38.61
69281;SHT31;56392;51.082;17.080;2023-06-19T14:24:40;29.29;38.62
69281;SHT31;56392;51.082;17.080;2023-06-19T14:30:04;29.23;38.52
69281;SHT31;56392;51.082;17.080;2023-06-19T14:35:29;29.16;38.62
69281;SHT31;56392;51.082;17.080;2023-06-19T14:40:54;29.14;39.19
69281;SHT31;56392;51.082;17.080;2023-06-19T14:46:18;29.26;39.58
69281;SHT31;56392;51.082;17.080;2023-06-19T14:51:42;29.28;39.95
69281;SHT31;56392;51.082;17.080;2023-06-19T14:57:06;29.15;39.89
69281;SHT31;56392;51.082;17.080;2023-06-19T15:02:29;29.15;40.04
69281;SHT31;56392;51.082;17.080;2023-06-19T15:07:52;29.22;39.97
69281;SHT31;56392;51.082;17.080;2023-06-19T15:13:17;29.19;39.86
69281;SHT31;56392;51.082;17.080;2023-06-19T15:18:40;29.12;39.87
69281;SHT31;56392;51.082;17.080;2023-06-19T15:24:03;29.05;40.74
69281;SHT31;56392;51.082;17.080;2023-06-19T15:29:28;29.02;40.42
69281;SHT31;56392;51.082;17.080;2023-06-19T15:34:52;28.99;40.36
69281;SHT31;56392;51.082;17.080;2023-06-19T15:40:15;28.97;40.16
69281;SHT31;56392;51.082;17.080;2023-06-19T15:45:39;28.90;40.56
69281;SHT31;56392;51.082;17.080;2023-06-19T15:51:03;28.81;40.79
69281;SHT31;56392;51.082;17.080;2023-06-19T15:56:26;28.75;40.95
69281;SHT31;56392;51.082;17.080;2023-06-19T16:01:50;28.53;41.49
69281;SHT31;56392;51.082;17.080;2023-06-19T16:07:13;28.40;41.89
69281;SHT31;56392;51.082;17.080;2023-06-19T16:12:36;28.23;42.10
69281;SHT31;56392;51.082;17.080;2023-06-19T16:18:01;28.14;42.33
69281;SHT31;56392;51.082;17.080;2023-06-19T16:23:25;28.07;42.41
69281;SHT31;56392;51.082;17.080;2023-06-19T16:28:48;27.88;43.21
69281;SHT31;56392;51.082;17.080;2023-06-19T16:34:14;27.68;43.71
69281;SHT31;56392;51.082;17.080;2023-06-19T16:39:37;27.48;43.67
69281;SHT31;56392;51.082;17.080;2023-06-19T16:45:00;27.35;43.85
69281;SHT31;56392;51.082;17.080;2023-06-19T16:50:24;27.31;43.83
69281;SHT31;56392;51.082;17.080;2023-06-19T16:55:48;27.26;43.85
69281;SHT31;56392;51.082;17.080;2023-06-19T17:01:11;27.17;44.34
69281;SHT31;56392;51.082;17.080;2023-06-19T17:06:36;27.15;44.53
69281;SHT31;56392;51.082;17.080;2023-06-19T17:11:59;27.18;44.59
69281;SHT31;56392;51.082;17.080;2023-06-19T17:17:22;27.21;44.09
69281;SHT31;56392;51.082;17.080;2023-06-19T17:22:47;27.23;44.45
69281;SHT31;56392;51.082;17.080;2023-06-19T17:28:10;27.24;45.50
69281;SHT31;56392;51.082;17.080;2023-06-19T17:33:33;27.11;47.42
69281;SHT31;56392;51.082;17.080;2023-06-19T17:38:58;27.07;47.29
69281;SHT31;56392;51.082;17.080;2023-06-19T17:44:21;26.94;47.82
69281;SHT31;56392;51.082;17.080;2023-06-19T17:49:48;26.83;47.98
69281;SHT31;56392;51.082;17.080;2023-06-19T17:55:13;26.61;48.65
69281;SHT31;56392;51.082;17.080;2023-06-19T18:00:37;26.49;50.46
69281;SHT31;56392;51.082;17.080;2023-06-19T18:06:00;26.11;53.79
69281;SHT31;56392;51.082;17.080;2023-06-19T18:11:25;25.74;55.81
69281;SHT31;56392;51.082;17.080;2023-06-19T18:16:48;25.43;57.10
69281;SHT31;56392;51.082;17.080;2023-06-19T18:22:12;25.16;58.66
69281;SHT31;56392;51.082;17.080;2023-06-19T18:27:37;24.86;60.65
69281;SHT31;56392;51.082;17.080;2023-06-19T18:33:01;24.64;61.43
69281;SHT31;56392;51.082;17.080;2023-06-19T18:38:26;24.42;63.08
69281;SHT31;56392;51.082;17.080;2023-06-19T18:43:51;24.22;62.81
69281;SHT31;56392;51.082;17.080;2023-06-19T18:49:14;24.01;63.57
69281;SHT31;56392;51.082;17.080;2023-06-19T18:54:38;23.81;64.16
69281;SHT31;56392;51.082;17.080;2023-06-19T19:00:03;23.66;64.04
69281;SHT31;56392;51.082;17.080;2023-06-19T19:05:26;23.53;63.85
69281;SHT31;56392;51.082;17.080;2023-06-19T19:10:50;23.33;64.77
69281;SHT31;56392;51.082;17.080;2023-06-19T19:16:14;23.19;64.78
69281;SHT31;56392;51.082;17.080;2023-06-19T19:21:39;22.99;65.68
69281;SHT31;56392;51.082;17.080;2023-06-19T19:27:05;22.90;65.49
69281;SHT31;56392;51.082;17.080;2023-06-19T19:32:32;22.78;66.04
69281;SHT31;56392;51.082;17.080;2023-06-19T19:37:55;22.68;66.56
69281;SHT31;56392;51.082;17.080;2023-06-19T19:43:19;22.63;66.97
69281;SHT31;56392;51.082;17.080;2023-06-19T19:48:45;22.79;67.29
69281;SHT31;56392;51.082;17.080;2023-06-19T19:54:09;22.88;67.43
69281;SHT31;56392;51.082;17.080;2023-06-19T19:59:33;22.91;67.61
69281;SHT31;56392;51.082;17.080;2023-06-19T20:05:06;22.81;67.90
69281;SHT31;56392;51.082;17.080;2023-06-19T20:10:29;22.74;67.64
69281;SHT31;56392;51.082;17.080;2023-06-19T20:15:53;22.69;67.30
69281;SHT31;56392;51.082;17.080;2023-06-19T20:21:17;22.60;66.68
69281;SHT31;56392;51.082;17.080;2023-06-19T20:26:40;22.55;66.80
69281;SHT31;56392;51.082;17.080;2023-06-19T20:32:07;22.44;67.23
69281;SHT31;56392;51.082;17.080;2023-06-19T20:37:32;22.36;67.45
69281;SHT31;56392;51.082;17.080;2023-06-19T20:42:55;22.32;67.68
69281;SHT31;56392;51.082;17.080;2023-06-19T20:48:21;22.24;67.68
69281;SHT31;56392;51.082;17.080;2023-06-19T20:53:45;22.23;68.30
69281;SHT31;56392;51.082;17.080;2023-06-19T20:59:08;22.32;68.42
69281;SHT31;56392;51.082;17.080;2023-06-19T21:04:31;22.30;68.07
69281;SHT31;56392;51.082;17.080;2023-06-19T21:09:56;22.33;67.78
69281;SHT31;56392;51.082;17.080;2023-06-19T21:15:20;22.29;68.08
69281;SHT31;56392;51.082;17.080;2023-06-19T21:20:43;22.24;68.13
69281;SHT31;56392;51.082;17.080;2023-06-19T21:26:08;22.24;68.02
69281;SHT31;56392;51.082;17.080;2023-06-19T21:31:31;22.34;67.25
69281;SHT31;56392;51.082;17.080;2023-06-19T21:36:54;22.43;66.20
69281;SHT31;56392;51.082;17.080;2023-06-19T21:42:19;22.54;65.84
69281;SHT31;56392;51.082;17.080;2023-06-19T21:47:42;22.61;66.12
69281;SHT31;56392;51.082;17.080;2023-06-19T21:53:05;22.44;67.19
69281;SHT31;56392;51.082;17.080;2023-06-19T21:58:29;22.23;68.09
69281;SHT31;56392;51.082;17.080;2023-06-19T22:03:53;22.05;68.70
69281;SHT31;56392;51.082;17.080;2023-06-19T22:09:17;21.92;69.15
69281;SHT31;56392;51.082;17.080;2023-06-19T22:14:42;21.82;69.50
69281;SHT31;56392;51.082;17.080;2023-06-19T22:20:06;21.79;69.76
69281;SHT31;56392;51.082;17.080;2023-06-19T22:25:30;21.78;69.62
69281;SHT31;56392;51.082;17.080;2023-06-19T22:30:55;21.72;69.97
69281;SHT31;56392;51.082;17.080;2023-06-19T22:36:18;21.67;70.43
69281;SHT31;56392;51.082;17.080;2023-06-19T22:41:41;21.58;70.56
69281;SHT31;56392;51.082;17.080;2023-06-19T22:47:06;21.54;70.64
69281;SHT31;56392;51.082;17.080;2023-06-19T22:52:30;21.42;70.66
69281;SHT31;56392;51.082;17.080;2023-06-19T22:57:54;21.32;70.77
69281;SHT31;56392;51.082;17.080;2023-06-19T23:03:19;21.17;71.07
69281;SHT31;56392;51.082;17.080;2023-06-19T23:08:43;21.08;71.18
69281;SHT31;56392;51.082;17.080;2023-06-19T23:14:06;21.00;71.08
69281;SHT31;56392;51.082;17.080;2023-06-19T23:19:31;20.94;70.95
69281;SHT31;56392;51.082;17.080;2023-06-19T23:24:54;20.90;71.46
69281;SHT31;56392;51.082;17.080;2023-06-19T23:30:17;20.84;71.78
69281;SHT31;56392;51.082;17.080;2023-06-19T23:35:42;20.81;71.99
69281;SHT31;56392;51.082;17.080;2023-06-19T23:41:05;20.79;71.88
69281;SHT31;56392;51.082;17.080;2023-06-19T23:46:28;20.72;71.94
69281;SHT31;56392;51.082;17.080;2023-06-19T23:51:52;20.60;72.14
69281;SHT31;56392;51.082;17.080;2023-06-19T23:57:15;20.49;72.65
